Time;durP1;ratioP1;P1;durP2;ratioP2;P2;SDS_P1;SDS_P2;PMS_P1;PMS_P2;Temp;Humidity;BMP_temperature;BMP_pressure;BME280_temperature;BME280_humidity;BME280_pressure;Samples;Min_cycle;Max_cycle;Signal;HPM_P1;HPM_P2
2023/09/14 00:00:04;;;;;;;3.37;2.37;;;;;;;17.20;58.31;93715.00;524157;28;1731;-46
2023/09/14 00:00:20;;;;;;;3.75;2.38;;;;;;;17.21;58.22;93712.94;524087;28;897;-47
2023/09/14 00:00:35;;;;;;;2.28;2.03;;;;;;;17.21;58.43;93715.72;524224;28;914;-47
2023/09/14 00:00:51;;;;;;;1.87;1.77;;;;;;;17.22;58.37;93717.19;523006;28;776;-47
2023/09/14 00:01:06;;;;;;;3.10;2.25;;;;;;;17.22;58.40;93717.19;524077;28;804;-47
2023/09/14 00:01:22;;;;;;;3.30;2.33;;;;;;;17.22;58.40;93708.81;524176;28;1611;-47
2023/09/14 00:01:37;;;;;;;2.85;2.22;;;;;;;17.01;58.44;93686.31;524073;28;749;-47
2023/09/14 00:01:56;;;;;;;3.63;2.30;;;;;;;17.22;58.33;93717.19;524229;28;798;-47
2023/09/14 00:02:12;;;;;;;2.88;2.30;;;;;;;17.22;58.32;93720.72;524081;28;887;-47
2023/09/14 00:02:28;;;;;;;3.67;2.28;;;;;;;17.21;58.30;93719.25;524131;28;848;-46
2023/09/14 00:02:43;;;;;;;3.97;2.20;;;;;;;17.23;58.40;93715.88;524267;28;780;-46
2023/09/14 00:02:59;;;;;;;3.40;2.20;;;;;;;17.22;58.40;93712.34;524216;28;1013;-47
2023/09/14 00:03:15;;;;;;;3.25;2.38;;;;;;;17.22;58.42;93720.72;524223;28;809;-46
2023/09/14 00:03:30;;;;;;;2.93;2.63;;;;;;;17.22;58.41;93709.56;524286;28;843;-46
2023/09/14 00:03:45;;;;;;;3.60;2.92;;;;;;;17.22;58.29;93717.19;524225;28;1122;-47
2023/09/14 00:04:01;;;;;;;5.97;3.20;;;;;;;17.22;58.55;93711.59;524264;28;816;-47
2023/09/14 00:04:16;;;;;;;8.02;3.05;;;;;;;17.21;58.42;93716.47;524228;28;855;-46
2023/09/14 00:04:31;;;;;;;5.63;2.57;;;;;;;17.19;58.56;93712.78;524257;28;843;-46
2023/09/14 00:04:47;;;;;;;6.53;2.50;;;;;;;17.19;58.43;93719.09;524262;28;866;-48
2023/09/14 00:05:03;;;;;;;8.75;2.67;;;;;;;17.19;58.38;93726.75;524285;28;887;-46
2023/09/14 00:05:18;;;;;;;5.83;2.33;;;;;;;17.18;58.42;93716.88;524213;28;864;-48
2023/09/14 00:05:41;;;;;;;2.90;2.28;;;;;;;17.16;58.50;93720.28;524339;28;871;-46
2023/09/14 00:05:56;;;;;;;4.03;2.17;;;;;;;17.15;58.65;93713.22;524194;28;1662;-47
2023/09/14 00:06:12;;;;;;;4.80;2.50;;;;;;;17.13;58.45;93713.06;524293;28;837;-47
2023/09/14 00:06:27;;;;;;;3.00;2.50;;;;;;;17.14;58.40;93717.34;524309;28;1177;-46
2023/09/14 00:06:42;;;;;;;3.20;2.30;;;;;;;17.14;58.44;93719.38;524261;28;871;-48
2023/09/14 00:06:58;;;;;;;3.75;2.30;;;;;;;17.12;58.49;93717.19;524282;28;863;-47
2023/09/14 00:07:13;;;;;;;3.40;2.30;;;;;;;17.11;58.58;93717.75;524361;28;838;-47
2023/09/14 00:07:28;;;;;;;2.27;2.00;;;;;;;17.09;58.57;93717.59;524288;28;772;-47
2023/09/14 00:07:44;;;;;;;3.20;1.95;;;;;;;17.09;58.70;93717.59;524220;28;875;-46
2023/09/14 00:07:59;;;;;;;3.93;2.10;;;;;;;17.06;58.69;93716.00;524233;28;851;-47
2023/09/14 00:08:14;;;;;;;4.17;2.20;;;;;;;17.04;58.90;93713.81;524313;28;863;-47
2023/09/14 00:08:30;;;;;;;5.28;2.22;;;;;;;17.03;58.88;93720.69;524257;28;814;-46
2023/09/14 00:08:46;;;;;;;4.20;2.33;;;;;;;17.02;58.56;93704.53;524303;28;823;-47
2023/09/14 00:09:01;;;;;;;3.05;2.25;;;;;;;17.01;58.87;93714.22;524299;28;822;-48
2023/09/14 00:09:16;;;;;;;4.33;2.27;;;;;;;17.01;59.04;93708.66;524249;28;823;-46
2023/09/14 00:09:32;;;;;;;4.97;2.63;;;;;;;16.99;59.15;93711.28;524237;28;1324;-47
2023/09/14 00:09:47;;;;;;;3.63;2.63;;;;;;;16.98;59.16;93709.81;524274;28;829;-46
2023/09/14 00:10:03;;;;;;;3.67;2.33;;;;;;;16.93;59.16;93705.25;524306;28;1610;-47
2023/09/14 00:10:19;;;;;;;2.50;1.98;;;;;;;16.95;59.32;93711.00;524313;28;798;-47
2023/09/14 00:10:34;;;;;;;2.20;2.00;;;;;;;16.91;59.41;93714.22;524294;28;1033;-46
2023/09/14 00:10:54;;;;;;;2.40;2.20;;;;;;;16.89;59.53;93710.53;524207;28;983;-46
2023/09/14 00:11:12;;;;;;;4.65;2.45;;;;;;;16.88;59.49;93714.63;524176;28;829;-47
2023/09/14 00:11:27;;;;;;;4.50;2.30;;;;;;;16.86;59.50;93709.66;524209;28;1053;-47
2023/09/14 00:11:42;;;;;;;2.33;2.13;;;;;;;16.85;59.73;93708.16;524226;28;870;-46
2023/09/14 00:11:57;;;;;;;2.30;2.10;;;;;;;16.85;59.56;93708.16;524254;28;797;-47
2023/09/14 00:12:13;;;;;;;2.57;1.90;;;;;;;16.85;59.56;93713.03;524278;28;1020;-47
2023/09/14 00:12:28;;;;;;;3.47;2.17;;;;;;;16.84;59.67;93709.50;524261;28;871;-47
2023/09/14 00:12:44;;;;;;;3.53;2.27;;;;;;;16.81;59.83;93709.91;524320;28;838;-46
2023/09/14 00:13:00;;;;;;;3.13;2.20;;;;;;;16.77;59.94;93712.41;524304;28;756;-47
2023/09/14 00:13:15;;;;;;;3.05;2.47;;;;;;;16.78;59.96;93700.69;524309;28;911;-46
2023/09/14 00:13:30;;;;;;;3.05;2.75;;;;;;;16.79;59.91;93712.56;524305;28;784;-48
2023/09/14 00:13:46;;;;;;;3.07;2.80;;;;;;;16.78;59.86;93714.63;524225;28;1913;-47
2023/09/14 00:14:01;;;;;;;3.73;2.77;;;;;;;16.77;59.96;93717.97;524327;28;819;-47
2023/09/14 00:14:17;;;;;;;3.65;2.70;;;;;;;16.77;59.99;93715.19;524312;28;806;-47
2023/09/14 00:14:32;;;;;;;2.73;2.53;;;;;;;16.74;59.97;93717.09;524357;28;768;-46
2023/09/14 00:14:48;;;;;;;3.25;2.53;;;;;;;16.72;60.10;93716.22;524258;28;851;-48
2023/09/14 00:15:03;;;;;;;3.83;2.67;;;;;;;16.71;60.13;93709.91;524286;28;1654;-47
2023/09/14 00:15:19;;;;;;;3.58;2.80;;;;;;;16.71;60.12;93720.31;524295;28;768;-48
2023/09/14 00:15:35;;;;;;;3.43;2.90;;;;;;;16.70;60.05;93714.00;524327;28;816;-47
2023/09/14 00:15:51;;;;;;;3.95;3.10;;;;;;;16.70;60.13;93714.00;524208;28;1070;-46
2023/09/14 00:16:06;;;;;;;3.72;3.05;;;;;;;16.72;60.09;93716.22;524295;28;801;-46
2023/09/14 00:16:22;;;;;;;3.13;2.83;;;;;;;16.71;60.29;93717.53;524314;28;820;-46
2023/09/14 00:16:37;;;;;;;3.47;2.90;;;;;;;16.70;60.01;93714.00;524244;28;819;-46
2023/09/14 00:16:52;;;;;;;4.70;2.70;;;;;;;16.71;60.19;93714.75;524301;28;769;-48
2023/09/14 00:17:08;;;;;;;4.00;2.70;;;;;;;16.70;60.27;93719.56;524243;28;870;-46
2023/09/14 00:17:23;;;;;;;3.20;2.90;;;;;;;16.70;60.30;93721.66;524356;28;824;-47
2023/09/14 00:17:39;;;;;;;4.07;2.90;;;;;;;16.69;60.35;93715.34;524258;28;824;-47
2023/09/14 00:17:55;;;;;;;4.10;2.53;;;;;;;16.68;60.21;93720.16;524319;28;811;-46
2023/09/14 00:18:11;;;;;;;2.73;2.30;;;;;;;16.67;60.32;93718.69;524308;28;839;-46
2023/09/14 00:18:27;;;;;;;2.70;2.50;;;;;;;16.68;60.30;93722.22;524281;28;840;-46
2023/09/14 00:18:42;;;;;;;3.03;2.75;;;;;;;16.67;60.46;93718.69;524309;28;882;-47
2023/09/14 00:18:57;;;;;;;2.80;2.57;;;;;;;16.67;60.49;93727.06;524011;28;839;-46
2023/09/14 00:19:13;;;;;;;2.77;2.57;;;;;;;16.68;60.52;93717.38;524014;28;765;-46
2023/09/14 00:19:28;;;;;;;2.92;2.63;;;;;;;16.67;60.59;93726.34;524298;28;827;-48
2023/09/14 00:19:43;;;;;;;2.83;2.53;;;;;;;16.65;60.49;93721.31;524302;28;890;-46
2023/09/14 00:20:00;;;;;;;4.67;2.67;;;;;;;16.65;60.59;93715.75;524231;28;890;-46
2023/09/14 00:20:20;;;;;;;4.78;2.72;;;;;;;16.62;60.63;93714.13;524280;28;882;-47
2023/09/14 00:20:36;;;;;;;4.22;2.63;;;;;;;16.67;60.48;93715.19;524308;28;804;-46
2023/09/14 00:20:53;;;;;;;4.60;2.85;;;;;;;16.66;60.68;93720.03;524236;28;813;-47
2023/09/14 00:21:08;;;;;;;4.88;3.35;;;;;;;16.68;60.63;93725.00;524210;28;863;-47
2023/09/14 00:21:23;;;;;;;5.88;3.50;;;;;;;16.67;60.57;93724.25;524301;28;1510;-46
2023/09/14 00:21:42;;;;;;;4.13;3.00;;;;;;;16.65;60.51;93724.09;524271;28;768;-47
2023/09/14 00:21:57;;;;;;;3.40;3.10;;;;;;;16.63;60.70;93721.16;524261;28;880;-47
2023/09/14 00:22:12;;;;;;;3.22;2.97;;;;;;;16.63;60.59;93717.66;524300;28;863;-46
2023/09/14 00:22:28;;;;;;;4.23;2.83;;;;;;;16.62;60.63;93722.50;524234;28;788;-47
2023/09/14 00:22:43;;;;;;;6.07;3.50;;;;;;;16.56;60.50;93708.13;524300;28;851;-46
2023/09/14 00:22:58;;;;;;;5.05;3.53;;;;;;;16.64;60.49;93721.91;524267;28;831;-47
2023/09/14 00:23:14;;;;;;;4.07;3.10;;;;;;;16.64;60.36;93719.13;524178;28;1081;-46
2023/09/14 00:23:29;;;;;;;3.63;3.17;;;;;;;16.63;60.50;93723.97;524239;28;961;-46
2023/09/14 00:23:45;;;;;;;4.38;3.58;;;;;;;16.64;60.43;93727.50;524227;28;925;-48
2023/09/14 00:24:00;;;;;;;3.80;3.07;;;;;;;16.64;60.26;93728.22;524288;28;852;-47
2023/09/14 00:24:16;;;;;;;3.20;2.90;;;;;;;16.64;60.17;93722.66;524296;28;828;-46
2023/09/14 00:24:31;;;;;;;4.72;3.10;;;;;;;16.64;60.03;93728.22;524281;28;1553;-47
2023/09/14 00:24:46;;;;;;;4.20;2.90;;;;;;;16.64;60.11;93722.66;524281;28;830;-47
2023/09/14 00:25:02;;;;;;;3.13;2.70;;;;;;;16.64;60.25;93719.88;524051;28;894;-46
2023/09/14 00:25:18;;;;;;;3.20;2.50;;;;;;;16.62;59.95;93718.97;524097;28;1220;-46
2023/09/14 00:25:33;;;;;;;2.92;2.50;;;;;;;16.62;59.92;93724.56;524177;28;768;-47
2023/09/14 00:25:49;;;;;;;3.00;2.70;;;;;;;16.62;60.03;93718.97;524110;28;809;-46
2023/09/14 00:26:05;;;;;;;2.88;2.60;;;;;;;16.57;60.01;93717.94;524159;28;823;-47
2023/09/14 00:26:20;;;;;;;4.55;2.80;;;;;;;16.61;60.11;93723.81;524040;28;923;-47
2023/09/14 00:26:35;;;;;;;4.87;2.87;;;;;;;16.63;60.00;93720.47;522018;28;950;-47
2023/09/14 00:26:51;;;;;;;3.67;2.88;;;;;;;16.64;60.06;93725.44;522422;28;826;-50
2023/09/14 00:27:06;;;;;;;9.10;3.47;;;;;;;16.63;59.94;93712.81;524027;28;958;-48
2023/09/14 00:27:21;;;;;;;11.50;3.57;;;;;;;16.66;59.95;93724.84;524094;28;1026;-47
2023/09/14 00:27:37;;;;;;;5.22;2.90;;;;;;;16.65;59.93;93720.59;524148;28;828;-48
2023/09/14 00:27:53;;;;;;;4.40;3.13;;;;;;;16.66;59.88;93722.81;524128;28;805;-47
2023/09/14 00:28:09;;;;;;;5.45;3.25;;;;;;;16.66;59.91;93720.03;524091;28;881;-46
2023/09/14 00:28:24;;;;;;;3.50;2.92;;;;;;;16.65;60.09;93718.53;524181;28;918;-48
2023/09/14 00:28:39;;;;;;;4.33;3.30;;;;;;;16.66;60.05;93716.50;524284;28;821;-46
2023/09/14 00:28:55;;;;;;;4.17;3.10;;;;;;;16.67;59.87;93727.06;524240;28;946;-47
2023/09/14 00:29:10;;;;;;;3.65;2.70;;;;;;;16.67;60.04;93718.69;524221;28;897;-46
2023/09/14 00:29:25;;;;;;;6.17;3.00;;;;;;;16.67;60.06;93720.75;524337;28;788;-47
2023/09/14 00:29:41;;;;;;;8.43;3.37;;;;;;;16.68;59.95;93716.63;524311;28;815;-48
2023/09/14 00:29:56;;;;;;;6.82;3.25;;;;;;;16.68;60.05;93722.22;524240;28;808;-46
2023/09/14 00:30:12;;;;;;;5.43;3.27;;;;;;;16.69;59.77;93723.69;524203;28;832;-46
2023/09/14 00:30:28;;;;;;;5.25;3.42;;;;;;;16.69;59.78;93723.69;524250;28;1053;-47
2023/09/14 00:30:43;;;;;;;3.50;3.17;;;;;;;16.71;59.96;93720.31;524310;28;840;-46
2023/09/14 00:30:58;;;;;;;3.00;2.60;;;;;;;16.70;59.89;93718.88;524250;28;1072;-47
2023/09/14 00:31:14;;;;;;;4.70;2.80;;;;;;;16.71;59.81;93723.84;524309;28;780;-47
2023/09/14 00:31:29;;;;;;;4.63;2.70;;;;;;;16.70;59.87;93727.94;524276;28;823;-46
2023/09/14 00:31:44;;;;;;;4.90;2.43;;;;;;;16.71;59.83;93721.06;524249;28;958;-46
2023/09/14 00:32:00;;;;;;;5.33;2.83;;;;;;;16.72;59.73;93721.81;524124;28;1037;-46
2023/09/14 00:32:15;;;;;;;4.05;3.00;;;;;;;16.72;59.98;93716.22;524259;28;883;-46
2023/09/14 00:32:31;;;;;;;4.20;2.93;;;;;;;16.73;59.82;93724.00;524280;28;946;-46
2023/09/14 00:32:49;;;;;;;7.20;3.17;;;;;;;16.73;59.83;93724.00;524326;28;862;-47
2023/09/14 00:33:05;;;;;;;6.55;3.13;;;;;;;16.74;59.50;93713.59;524208;28;1065;-47
2023/09/14 00:33:21;;;;;;;5.93;2.93;;;;;;;16.61;59.42;93701.50;524269;28;843;-46
2023/09/14 00:33:37;;;;;;;5.95;2.83;;;;;;;16.74;59.50;93721.94;524230;28;851;-48
2023/09/14 00:33:53;;;;;;;8.33;2.90;;;;;;;16.74;59.43;93722.66;524135;28;1980;-46
2023/09/14 00:34:09;;;;;;;5.00;2.38;;;;;;;16.75;59.45;93720.63;524189;28;893;-48
2023/09/14 00:34:24;;;;;;;2.90;2.53;;;;;;;16.75;59.33;93723.41;524355;28;800;-47
2023/09/14 00:34:39;;;;;;;3.73;3.07;;;;;;;16.74;59.21;93725.47;524008;28;1050;-48
2023/09/14 00:34:55;;;;;;;4.57;3.13;;;;;;;16.74;59.13;93719.88;524132;28;805;-47
2023/09/14 00:35:11;;;;;;;4.60;2.70;;;;;;;16.74;59.08;93721.94;524058;28;795;-48
2023/09/14 00:35:26;;;;;;;3.22;2.55;;;;;;;16.75;59.23;93720.63;524108;28;896;-47
2023/09/14 00:35:45;;;;;;;2.70;2.50;;;;;;;16.73;59.06;93726.78;524085;28;857;-46
2023/09/14 00:36:00;;;;;;;3.08;2.40;;;;;;;16.73;59.04;93718.44;524092;28;876;-46
2023/09/14 00:36:16;;;;;;;2.83;2.20;;;;;;;16.74;59.21;93724.75;524060;28;835;-46
2023/09/14 00:36:31;;;;;;;3.50;2.50;;;;;;;16.73;59.08;93717.69;524065;28;839;-47
2023/09/14 00:36:46;;;;;;;4.27;3.07;;;;;;;16.73;59.06;93721.22;524255;28;831;-47
2023/09/14 00:37:02;;;;;;;3.20;2.87;;;;;;;16.62;58.90;93705.03;524158;28;879;-47
2023/09/14 00:37:18;;;;;;;3.28;2.70;;;;;;;16.74;59.06;93721.94;524177;28;965;-47
2023/09/14 00:37:33;;;;;;;4.25;2.42;;;;;;;16.74;59.15;93719.88;524259;28;855;-46
2023/09/14 00:37:49;;;;;;;4.27;2.67;;;;;;;16.74;59.03;93719.88;524217;28;799;-46
2023/09/14 00:38:04;;;;;;;2.92;2.60;;;;;;;16.74;58.85;93719.16;524211;28;850;-47
2023/09/14 00:38:20;;;;;;;2.57;2.37;;;;;;;16.73;58.92;93720.47;524179;28;862;-47
2023/09/14 00:38:35;;;;;;;2.47;2.28;;;;;;;16.73;58.91;93717.69;524298;28;912;-47
2023/09/14 00:38:50;;;;;;;3.43;2.13;;;;;;;16.71;58.88;93723.09;524183;28;914;-46
2023/09/14 00:39:09;;;;;;;3.80;2.50;;;;;;;16.68;58.82;93725.00;524257;28;808;-46
2023/09/14 00:39:24;;;;;;;3.15;2.80;;;;;;;16.68;58.94;93728.53;524165;28;1267;-47
2023/09/14 00:39:39;;;;;;;4.67;2.80;;;;;;;16.66;59.00;93724.84;524189;28;1491;-47
2023/09/14 00:39:55;;;;;;;5.17;2.90;;;;;;;16.64;58.96;93722.66;524296;28;833;-47
2023/09/14 00:40:12;;;;;;;3.17;2.55;;;;;;;16.64;58.96;93724.69;524207;28;859;-47
2023/09/14 00:40:27;;;;;;;3.03;2.47;;;;;;;16.64;58.94;93721.91;522142;28;875;-46
2023/09/14 00:40:43;;;;;;;3.80;2.57;;;;;;;16.64;58.92;93716.34;522184;28;1499;-47
2023/09/14 00:40:58;;;;;;;3.27;2.30;;;;;;;16.62;59.10;93721.75;522104;28;863;-46
2023/09/14 00:41:13;;;;;;;2.80;2.50;;;;;;;16.62;59.08;93725.28;522225;28;807;-46
2023/09/14 00:41:29;;;;;;;3.47;2.60;;;;;;;16.59;59.04;93718.09;522160;28;935;-47
2023/09/14 00:41:44;;;;;;;3.83;2.50;;;;;;;16.61;59.04;93721.03;522188;28;929;-47
2023/09/14 00:42:00;;;;;;;3.43;2.60;;;;;;;16.61;59.12;93720.31;522160;28;831;-47
2023/09/14 00:42:15;;;;;;;3.97;2.90;;;;;;;16.59;59.03;93715.28;522160;28;847;-48
2023/09/14 00:42:55;;;;;;;3.33;2.73;;;;;;;16.59;58.99;93722.91;522104;28;875;-47
2023/09/14 00:43:10;;;;;;;3.05;2.65;;;;;;;16.57;58.95;93708.81;522054;28;910;-47
2023/09/14 00:43:25;;;;;;;2.78;2.58;;;;;;;16.56;59.22;93715.72;522152;28;846;-46
2023/09/14 00:43:41;;;;;;;4.23;2.80;;;;;;;16.56;59.24;93713.69;522167;28;1005;-46
2023/09/14 00:43:57;;;;;;;4.28;2.63;;;;;;;16.55;59.26;93709.41;522096;28;875;-46
2023/09/14 00:44:12;;;;;;;2.90;2.47;;;;;;;16.55;59.28;93717.03;522152;28;894;-48
2023/09/14 00:44:27;;;;;;;3.30;2.70;;;;;;;16.55;59.47;93714.25;522188;28;809;-46
2023/09/14 00:44:43;;;;;;;3.15;2.75;;;;;;;16.55;59.47;93715.00;522221;28;875;-46
2023/09/14 00:44:58;;;;;;;3.07;2.70;;;;;;;16.54;59.60;93707.22;522174;28;1019;-46
2023/09/14 00:45:15;;;;;;;2.77;2.30;;;;;;;16.55;59.59;93715.00;522152;28;875;-48
2023/09/14 00:45:32;;;;;;;3.05;2.13;;;;;;;16.55;59.68;93717.03;522162;28;825;-46
2023/09/14 00:45:47;;;;;;;3.75;2.60;;;;;;;16.54;59.67;93707.97;521967;28;1684;-47
2023/09/14 00:46:03;;;;;;;2.97;2.58;;;;;;;16.53;59.65;93709.25;519935;28;792;-47
2023/09/14 00:46:18;;;;;;;4.13;2.70;;;;;;;16.54;59.54;93710.75;517906;28;850;-47
2023/09/14 00:46:34;;;;;;;4.90;3.00;;;;;;;16.53;59.71;93709.25;517918;28;879;-46
2023/09/14 00:46:49;;;;;;;3.92;2.95;;;;;;;16.54;59.78;93710.00;517840;28;847;-47
2023/09/14 00:47:05;;;;;;;3.50;2.80;;;;;;;16.55;59.68;93715.00;517764;28;884;-47
2023/09/14 00:47:20;;;;;;;3.23;2.63;;;;;;;16.55;59.82;93708.66;517866;28;1072;-46
2023/09/14 00:47:38;;;;;;;3.03;2.60;;;;;;;16.53;59.74;93714.84;518335;28;835;-47
2023/09/14 00:47:58;;;;;;;2.97;2.65;;;;;;;16.55;59.81;93709.41;520620;28;840;-48
2023/09/14 00:48:13;;;;;;;3.15;2.53;;;;;;;16.54;59.80;93710.00;519946;28;804;-47
2023/09/14 00:48:29;;;;;;;2.70;2.40;;;;;;;16.55;59.77;93714.25;519910;28;903;-48
2023/09/14 00:48:44;;;;;;;3.10;2.42;;;;;;;16.53;59.78;93706.47;519877;28;993;-46
2023/09/14 00:49:00;;;;;;;4.70;2.70;;;;;;;16.54;59.77;93707.22;519919;28;939;-46
2023/09/14 00:49:16;;;;;;;4.38;2.63;;;;;;;16.54;59.90;93707.97;517865;28;855;-46
2023/09/14 00:49:31;;;;;;;2.63;2.30;;;;;;;16.54;59.99;93710.00;519141;28;946;-46
2023/09/14 00:49:47;;;;;;;2.90;2.40;;;;;;;16.55;59.95;93711.47;517822;28;974;-46
2023/09/14 00:50:03;;;;;;;3.20;2.80;;;;;;;16.55;59.91;93715.00;516273;28;1061;-46
2023/09/14 00:50:20;;;;;;;3.20;2.85;;;;;;;16.54;59.98;93707.97;517893;28;867;-46
2023/09/14 00:50:35;;;;;;;3.70;2.70;;;;;;;16.54;60.02;93707.97;517800;28;980;-47
2023/09/14 00:50:51;;;;;;;6.30;2.60;;;;;;;16.55;59.92;93708.66;517913;28;879;-46
2023/09/14 00:51:07;;;;;;;5.95;2.83;;;;;;;16.53;59.96;93709.25;518467;28;828;-48
2023/09/14 00:51:22;;;;;;;3.50;2.90;;;;;;;16.54;59.96;93702.38;520797;28;1762;-47
2023/09/14 00:51:38;;;;;;;3.50;2.90;;;;;;;16.54;60.26;93710.75;521949;28;772;-46
2023/09/14 00:51:53;;;;;;;2.90;2.63;;;;;;;16.56;60.25;93704.59;522774;28;800;-46
2023/09/14 00:52:10;;;;;;;3.65;2.45;;;;;;;16.52;60.22;93705.00;523968;28;1670;-46
2023/09/14 00:52:26;;;;;;;5.75;2.88;;;;;;;16.54;60.30;93713.53;521966;28;872;-47
2023/09/14 00:52:44;;;;;;;5.10;3.10;;;;;;;16.53;60.35;93706.47;522674;28;768;-47
2023/09/14 00:53:08;;;;;;;3.58;2.95;;;;;;;16.54;60.36;93710.75;523994;28;892;-47
2023/09/14 00:53:23;;;;;;;3.95;2.80;;;;;;;16.53;60.34;93709.25;521971;28;1222;-46
2023/09/14 00:53:39;;;;;;;2.95;2.40;;;;;;;16.51;60.28;93700.75;521992;28;846;-46
2023/09/14 00:53:55;;;;;;;4.13;2.60;;;;;;;16.54;60.29;93701.66;521955;28;1977;-47
2023/09/14 00:54:10;;;;;;;4.28;2.90;;;;;;;16.54;60.17;93705.16;519874;28;848;-48
2023/09/14 00:54:25;;;;;;;3.00;2.70;;;;;;;16.54;60.17;93702.38;524092;28;796;-48
2023/09/14 00:54:41;;;;;;;2.97;2.67;;;;;;;16.55;60.17;93703.84;524043;28;886;-46
2023/09/14 00:54:56;;;;;;;4.57;3.00;;;;;;;16.56;60.22;93707.38;521948;28;935;-47
2023/09/14 00:55:17;;;;;;;4.97;3.20;;;;;;;16.55;60.06;93706.63;522361;28;846;-47
2023/09/14 00:55:33;;;;;;;4.78;2.97;;;;;;;16.56;60.08;93708.13;521955;28;921;-46
2023/09/14 00:55:48;;;;;;;4.78;3.10;;;;;;;16.57;59.95;93714.41;519895;28;911;-47
2023/09/14 00:56:06;;;;;;;3.17;2.87;;;;;;;16.57;59.93;93706.78;520985;28;776;-47
2023/09/14 00:56:21;;;;;;;4.03;2.80;;;;;;;16.57;59.98;93708.81;520653;28;951;-47
2023/09/14 00:56:37;;;;;;;3.93;2.60;;;;;;;16.57;59.95;93706.03;519902;28;848;-46
2023/09/14 00:56:52;;;;;;;3.22;2.65;;;;;;;16.56;59.77;93705.31;521254;28;1014;-46
2023/09/14 00:57:07;;;;;;;4.93;3.17;;;;;;;16.56;59.75;93708.13;521945;28;833;-47
2023/09/14 00:57:24;;;;;;;3.90;2.97;;;;;;;16.56;59.73;93705.31;522774;28;876;-46
2023/09/14 00:57:40;;;;;;;3.40;3.10;;;;;;;16.56;59.64;93705.31;522649;28;825;-46
2023/09/14 00:57:56;;;;;;;3.85;2.72;;;;;;;16.57;59.57;93703.25;521932;28;942;-47
2023/09/14 00:58:15;;;;;;;3.85;2.55;;;;;;;16.56;59.42;93708.13;521914;28;849;-46
2023/09/14 00:58:30;;;;;;;3.05;2.50;;;;;;;16.55;59.58;93703.84;521978;28;860;-47
2023/09/14 00:58:47;;;;;;;2.60;2.40;;;;;;;16.55;59.32;93700.31;519907;28;769;-46
2023/09/14 00:59:04;;;;;;;3.05;2.78;;;;;;;16.54;59.42;93705.16;517835;28;867;-46
2023/09/14 00:59:20;;;;;;;3.47;2.90;;;;;;;16.56;59.39;93705.31;517851;28;919;-47
2023/09/14 00:59:35;;;;;;;2.97;2.67;;;;;;;16.56;59.22;93707.38;517269;28;1717;-47
2023/09/14 00:59:51;;;;;;;5.43;2.40;;;;;;;16.56;59.13;93699.75;519054;28;1661;-46
2023/09/14 01:00:10;;;;;;;8.03;2.70;;;;;;;16.56;59.21;93704.59;519875;28;935;-47
2023/09/14 01:00:26;;;;;;;3.92;2.55;;;;;;;16.54;59.03;93705.16;519871;28;1655;-47
2023/09/14 01:00:44;;;;;;;4.38;2.35;;;;;;;16.54;59.05;93701.66;521236;28;902;-47
2023/09/14 01:01:00;;;;;;;5.03;2.80;;;;;;;16.53;59.17;93700.91;523539;28;908;-46
2023/09/14 01:01:15;;;;;;;6.25;2.70;;;;;;;16.53;59.01;93700.16;524012;28;1645;-47
2023/09/14 01:01:32;;;;;;;5.47;2.10;;;;;;;16.53;59.08;93703.69;523212;28;780;-46
2023/09/14 01:01:47;;;;;;;4.68;2.08;;;;;;;16.52;59.05;93705.00;524014;28;882;-46
2023/09/14 01:02:03;;;;;;;4.93;2.60;;;;;;;16.51;58.96;93703.53;523941;28;1123;-47
2023/09/14 01:02:18;;;;;;;3.03;2.60;;;;;;;16.50;59.00;93704.13;523951;28;820;-47
2023/09/14 01:02:34;;;;;;;3.17;2.42;;;;;;;16.49;59.14;93705.41;524023;28;839;-47
2023/09/14 01:02:58;;;;;;;3.33;2.40;;;;;;;16.47;59.11;93702.47;524033;28;785;-46
2023/09/14 01:03:13;;;;;;;4.18;2.50;;;;;;;16.41;59.25;93691.59;523926;28;1753;-47
2023/09/14 01:03:30;;;;;;;4.50;2.25;;;;;;;16.44;59.22;93701.56;524015;28;934;-47
2023/09/14 01:03:45;;;;;;;2.90;2.17;;;;;;;16.43;59.36;93704.94;524051;28;818;-48
2023/09/14 01:04:00;;;;;;;2.87;2.40;;;;;;;16.43;59.36;93707.72;521941;28;882;-46
2023/09/14 01:04:16;;;;;;;4.88;2.30;;;;;;;16.41;59.43;93705.53;521979;28;836;-46
2023/09/14 01:04:31;;;;;;;4.57;2.43;;;;;;;16.39;59.49;93702.59;521990;28;1094;-48
2023/09/14 01:04:48;;;;;;;3.00;2.70;;;;;;;16.39;59.54;93702.59;519948;28;757;-47
2023/09/14 01:05:05;;;;;;;2.70;2.50;;;;;;;16.38;59.52;93703.16;519946;28;822;-47
2023/09/14 01:05:21;;;;;;;2.50;2.25;;;;;;;16.29;59.62;93687.88;517874;28;961;-49
2023/09/14 01:05:36;;;;;;;2.33;2.10;;;;;;;16.38;59.69;93706.69;518562;28;967;-47
2023/09/14 01:05:52;;;;;;;2.37;2.17;;;;;;;16.37;59.48;93702.41;518658;28;1056;-47
2023/09/14 01:06:08;;;;;;;2.33;2.13;;;;;;;16.34;59.40;93700.81;517804;28;947;-46
2023/09/14 01:06:24;;;;;;;2.38;2.17;;;;;;;16.35;59.48;93701.53;517924;28;903;-46
2023/09/14 01:06:40;;;;;;;2.58;2.17;;;;;;;16.33;59.48;93704.91;518808;28;1019;-47
2023/09/14 01:06:56;;;;;;;2.53;2.28;;;;;;;16.23;59.43;93687.41;519935;28;856;-47
2023/09/14 01:07:14;;;;;;;2.80;2.60;;;;;;;16.32;59.66;93702.69;519984;28;844;-46
2023/09/14 01:07:29;;;;;;;3.00;2.80;;;;;;;16.30;59.61;93703.28;519869;28;914;-47
2023/09/14 01:07:45;;;;;;;2.57;2.37;;;;;;;16.31;59.67;93710.31;520959;28;808;-48
2023/09/14 01:08:00;;;;;;;2.60;2.20;;;;;;;16.29;59.87;93704.59;522968;28;815;-46
2023/09/14 01:08:16;;;;;;;2.80;2.30;;;;;;;16.30;59.69;93706.06;523960;28;948;-47
2023/09/14 01:08:32;;;;;;;3.65;2.35;;;;;;;16.30;59.76;93708.13;522013;28;936;-46
2023/09/14 01:08:48;;;;;;;4.57;2.30;;;;;;;16.30;59.90;93706.06;522785;28;827;-47
2023/09/14 01:09:05;;;;;;;3.67;2.20;;;;;;;16.28;59.81;93703.13;523956;28;1140;-47
2023/09/14 01:09:20;;;;;;;2.55;2.20;;;;;;;16.28;59.78;93708.72;523931;28;897;-47
2023/09/14 01:09:35;;;;;;;2.60;2.40;;;;;;;16.27;59.79;93703.69;521913;28;922;-47
2023/09/14 01:09:51;;;;;;;3.40;2.57;;;;;;;16.27;59.97;93700.91;521973;28;768;-46
2023/09/14 01:10:09;;;;;;;2.88;2.30;;;;;;;16.19;60.12;93695.47;521875;28;1677;-47
2023/09/14 01:10:25;;;;;;;2.95;2.33;;;;;;;16.25;60.15;93704.28;522018;28;897;-47
2023/09/14 01:10:40;;;;;;;4.27;2.50;;;;;;;16.25;60.14;93701.50;526064;28;804;-47
2023/09/14 01:10:56;;;;;;;4.15;2.67;;;;;;;16.25;60.19;93706.31;526102;28;827;-47
2023/09/14 01:11:11;;;;;;;2.90;2.60;;;;;;;16.25;60.22;93709.84;523998;28;784;-46
2023/09/14 01:11:26;;;;;;;2.92;2.40;;;;;;;16.25;60.25;93706.31;523947;28;1495;-47
2023/09/14 01:11:42;;;;;;;2.60;2.23;;;;;;;16.23;60.35;93701.34;521975;28;804;-46
2023/09/14 01:11:57;;;;;;;2.90;2.40;;;;;;;16.23;60.24;93704.13;521988;28;759;-47
2023/09/14 01:12:14;;;;;;;2.95;2.42;;;;;;;16.23;60.28;93706.19;521924;28;871;-47
2023/09/14 01:12:29;;;;;;;2.92;2.50;;;;;;;16.23;60.39;93701.34;519397;28;876;-46
2023/09/14 01:12:48;;;;;;;2.90;2.53;;;;;;;16.23;60.49;93706.19;517916;28;802;-47
2023/09/14 01:13:03;;;;;;;2.97;2.60;;;;;;;16.22;60.48;93699.84;518668;28;859;-47
2023/09/14 01:13:32;;;;;;;2.55;2.35;;;;;;;16.14;60.38;93687.34;517870;28;806;-47
2023/09/14 01:13:59;;;;;;;2.80;2.60;;;;;;;16.23;60.43;93704.13;519713;28;2048;-46
2023/09/14 01:14:32;;;;;;;2.97;2.67;;;;;;;16.22;60.61;93702.66;521909;28;843;-47
2023/09/14 01:15:20;;;;;;;3.25;2.72;;;;;;;16.09;60.59;93677.94;521873;28;935;-47
2023/09/14 01:15:39;;;;;;;2.90;2.60;;;;;;;16.23;60.75;93695.03;521774;28;1140;-46
2023/09/14 01:16:03;;;;;;;3.33;2.80;;;;;;;16.23;60.82;93703.38;521915;28;913;-47
2023/09/14 01:16:25;;;;;;;5.80;2.97;;;;;;;16.23;60.82;93695.03;517851;28;1069;-48
2023/09/14 01:16:45;;;;;;;5.28;2.35;;;;;;;16.22;60.79;93699.16;518695;28;900;-46
2023/09/14 01:17:16;;;;;;;2.55;2.33;;;;;;;16.22;60.83;93694.28;517776;28;910;-47
2023/09/14 01:17:35;;;;;;;3.20;2.50;;;;;;;16.23;60.82;93692.97;517739;28;970;-46
2023/09/14 01:18:11;;;;;;;4.00;2.78;;;;;;;16.23;60.82;93692.25;519113;28;880;-46
2023/09/14 01:18:30;;;;;;;2.97;2.65;;;;;;;16.17;60.97;93686.22;521941;28;880;-46
2023/09/14 01:18:53;;;;;;;2.72;2.53;;;;;;;16.23;60.93;93695.03;521923;28;898;-48
2023/09/14 01:19:41;;;;;;;3.03;2.38;;;;;;;16.25;61.06;93695.94;521801;28;998;-46
2023/09/14 01:20:33;;;;;;;3.25;2.75;;;;;;;16.24;61.19;93686.09;517545;28;1160;-46
2023/09/14 01:21:06;;;;;;;2.55;2.35;;;;;;;16.22;60.99;93696.34;515612;28;866;-47
2023/09/14 01:21:54;;;;;;;2.85;2.50;;;;;;;16.22;61.09;93697.06;521978;28;800;-46
2023/09/14 01:22:32;;;;;;;3.10;2.78;;;;;;;16.22;61.16;93691.50;519765;28;1576;-46